sensor_id;sensor_type;location;lat;lon;timestamp;pressure;altitude;pressure_sealevel;temperature;humidity
43741;BME280;29352;48.708;9.290;2022-12-29T00:02:24;97446.56;;;-0.08;73.11
43741;BME280;29352;48.708;9.290;2022-12-29T00:04:50;97439.19;;;-0.12;73.45
43741;BME280;29352;48.708;9.290;2022-12-29T00:07:16;97439.38;;;-0.06;72.89
43741;BME280;29352;48.708;9.290;2022-12-29T00:09:42;97439.53;;;-0.07;72.88
43741;BME280;29352;48.708;9.290;2022-12-29T00:12:07;97446.25;;;-0.05;72.96
43741;BME280;29352;48.708;9.290;2022-12-29T00:14:33;97443.03;;;0.18;72.41
43741;BME280;29352;48.708;9.290;2022-12-29T00:17:17;97441.75;;;0.22;72.29
43741;BME280;29352;48.708;9.290;2022-12-29T00:19:42;97431.56;;;0.19;72.41
43741;BME280;29352;48.708;9.290;2022-12-29T00:22:26;97427.78;;;0.21;72.15
43741;BME280;29352;48.708;9.290;2022-12-29T00:25:12;97419.09;;;0.13;72.71
43741;BME280;29352;48.708;9.290;2022-12-29T00:27:57;97409.47;;;0.30;71.82
43741;BME280;29352;48.708;9.290;2022-12-29T00:30:42;97409.34;;;-0.19;74.16
43741;BME280;29352;48.708;9.290;2022-12-29T00:33:31;97405.28;;;0.11;72.78
43741;BME280;29352;48.708;9.290;2022-12-29T00:36:24;97408.59;;;0.21;72.84
43741;BME280;29352;48.708;9.290;2022-12-29T00:38:57;97401.03;;;0.18;72.59
43741;BME280;29352;48.708;9.290;2022-12-29T00:41:44;97400.22;;;0.09;72.57
43741;BME280;29352;48.708;9.290;2022-12-29T00:44:28;97395.59;;;0.03;72.98
43741;BME280;29352;48.708;9.290;2022-12-29T00:46:54;97402.03;;;0.17;72.62
43741;BME280;29352;48.708;9.290;2022-12-29T00:49:19;97395.78;;;0.10;72.63
43741;BME280;29352;48.708;9.290;2022-12-29T00:52:09;97392.16;;;0.03;72.69
43741;BME280;29352;48.708;9.290;2022-12-29T00:54:38;97396.13;;;0.15;72.13
43741;BME280;29352;48.708;9.290;2022-12-29T00:57:07;97397.66;;;0.26;72.22
43741;BME280;29352;48.708;9.290;2022-12-29T00:59:35;97398.78;;;0.31;71.79
43741;BME280;29352;48.708;9.290;2022-12-29T01:02:01;97391.56;;;0.66;70.57
43741;BME280;29352;48.708;9.290;2022-12-29T01:04:27;97389.25;;;0.95;69.89
43741;BME280;29352;48.708;9.290;2022-12-29T01:06:53;97395.50;;;0.70;70.42
43741;BME280;29352;48.708;9.290;2022-12-29T01:09:19;97393.56;;;0.64;70.77
43741;BME280;29352;48.708;9.290;2022-12-29T01:12:05;97392.34;;;0.91;70.06
43741;BME280;29352;48.708;9.290;2022-12-29T01:14:33;97400.09;;;0.68;70.70
43741;BME280;29352;48.708;9.290;2022-12-29T01:16:59;97406.66;;;0.72;70.49
43741;BME280;29352;48.708;9.290;2022-12-29T01:19:25;97400.25;;;0.83;70.48
43741;BME280;29352;48.708;9.290;2022-12-29T01:21:51;97412.41;;;0.76;70.82
43741;BME280;29352;48.708;9.290;2022-12-29T01:24:18;97414.88;;;0.61;70.99
43741;BME280;29352;48.708;9.290;2022-12-29T01:26:46;97407.16;;;0.59;71.05
43741;BME280;29352;48.708;9.290;2022-12-29T01:29:12;97416.03;;;0.75;70.75
43741;BME280;29352;48.708;9.290;2022-12-29T01:31:37;97413.75;;;0.63;71.40
43741;BME280;29352;48.708;9.290;2022-12-29T01:34:04;97404.84;;;0.56;71.19
43741;BME280;29352;48.708;9.290;2022-12-29T01:36:30;97405.34;;;0.52;71.41
43741;BME280;29352;48.708;9.290;2022-12-29T01:38:55;97418.84;;;0.57;71.70
43741;BME280;29352;48.708;9.290;2022-12-29T01:41:22;97411.25;;;0.45;72.60
43741;BME280;29352;48.708;9.290;2022-12-29T01:43:54;97407.97;;;0.27;72.91
43741;BME280;29352;48.708;9.290;2022-12-29T01:46:40;97409.47;;;0.30;73.07
43741;BME280;29352;48.708;9.290;2022-12-29T01:49:23;97408.25;;;0.24;73.17
43741;BME280;29352;48.708;9.290;2022-12-29T01:51:56;97412.25;;;0.36;73.00
43741;BME280;29352;48.708;9.290;2022-12-29T01:54:36;97408.66;;;0.54;72.49
43741;BME280;29352;48.708;9.290;2022-12-29T01:57:16;97403.22;;;0.55;72.10
43741;BME280;29352;48.708;9.290;2022-12-29T01:59:58;97406.19;;;0.36;72.63
43741;BME280;29352;48.708;9.290;2022-12-29T02:02:28;97403.06;;;0.40;72.68
43741;BME280;29352;48.708;9.290;2022-12-29T02:04:58;97407.81;;;0.69;71.54
43741;BME280;29352;48.708;9.290;2022-12-29T02:07:31;97402.41;;;0.71;71.67
43741;BME280;29352;48.708;9.290;2022-12-29T02:09:56;97408.13;;;0.66;71.95
43741;BME280;29352;48.708;9.290;2022-12-29T02:12:23;97404.69;;;0.82;71.27
43741;BME280;29352;48.708;9.290;2022-12-29T02:14:55;97404.34;;;0.77;71.86
43741;BME280;29352;48.708;9.290;2022-12-29T02:29:36;97383.50;;;0.76;72.06
43741;BME280;29352;48.708;9.290;2022-12-29T02:37:50;97373.13;;;0.90;71.27
43741;BME280;29352;48.708;9.290;2022-12-29T02:40:43;97370.50;;;0.90;71.25
43741;BME280;29352;48.708;9.290;2022-12-29T02:43:34;97378.69;;;1.04;70.64
43741;BME280;29352;48.708;9.290;2022-12-29T02:52:09;97374.66;;;1.40;69.68
43741;BME280;29352;48.708;9.290;2022-12-29T02:54:48;97361.31;;;1.42;69.52
43741;BME280;29352;48.708;9.290;2022-12-29T02:59:50;97361.94;;;1.52;68.97
43741;BME280;29352;48.708;9.290;2022-12-29T03:02:34;97358.56;;;1.66;68.81
43741;BME280;29352;48.708;9.290;2022-12-29T03:05:34;97368.25;;;1.74;68.27
43741;BME280;29352;48.708;9.290;2022-12-29T03:11:38;97375.44;;;1.88;68.27
43741;BME280;29352;48.708;9.290;2022-12-29T03:14:37;97372.47;;;1.83;68.19
43741;BME280;29352;48.708;9.290;2022-12-29T03:17:29;97367.34;;;1.90;67.97
43741;BME280;29352;48.708;9.290;2022-12-29T03:21:30;97368.50;;;1.87;68.18
43741;BME280;29352;48.708;9.290;2022-12-29T03:23:36;97357.81;;;1.81;67.69
43741;BME280;29352;48.708;9.290;2022-12-29T03:26:09;97357.50;;;1.92;67.84
43741;BME280;29352;48.708;9.290;2022-12-29T03:28:56;97360.97;;;1.84;67.71
43741;BME280;29352;48.708;9.290;2022-12-29T03:31:24;97348.47;;;1.86;67.67
43741;BME280;29352;48.708;9.290;2022-12-29T03:33:53;97352.41;;;1.82;67.90
43741;BME280;29352;48.708;9.290;2022-12-29T03:36:38;97345.16;;;1.84;67.57
43741;BME280;29352;48.708;9.290;2022-12-29T03:39:12;97337.16;;;1.78;68.14
43741;BME280;29352;48.708;9.290;2022-12-29T03:41:43;97335.97;;;1.88;67.80
43741;BME280;29352;48.708;9.290;2022-12-29T03:44:12;97341.69;;;1.92;67.59
43741;BME280;29352;48.708;9.290;2022-12-29T03:46:38;97344.38;;;2.07;67.23
43741;BME280;29352;48.708;9.290;2022-12-29T03:49:04;97350.00;;;2.04;67.56
43741;BME280;29352;48.708;9.290;2022-12-29T03:51:29;97338.34;;;1.98;67.67
43741;BME280;29352;48.708;9.290;2022-12-29T03:53:55;97331.22;;;2.07;68.03
43741;BME280;29352;48.708;9.290;2022-12-29T03:56:20;97332.22;;;2.06;68.08
43741;BME280;29352;48.708;9.290;2022-12-29T03:58:46;97325.56;;;1.95;68.17
43741;BME280;29352;48.708;9.290;2022-12-29T04:01:11;97334.13;;;2.12;67.94
43741;BME280;29352;48.708;9.290;2022-12-29T04:03:37;97337.16;;;2.09;68.11
43741;BME280;29352;48.708;9.290;2022-12-29T04:06:03;97328.53;;;1.92;68.44
43741;BME280;29352;48.708;9.290;2022-12-29T04:08:29;97329.00;;;1.96;68.22
43741;BME280;29352;48.708;9.290;2022-12-29T04:10:54;97342.03;;;2.12;68.65
43741;BME280;29352;48.708;9.290;2022-12-29T04:13:19;97337.19;;;2.01;68.75
43741;BME280;29352;48.708;9.290;2022-12-29T04:15:45;97341.34;;;1.95;69.05
43741;BME280;29352;48.708;9.290;2022-12-29T04:18:11;97338.94;;;1.85;69.37
43741;BME280;29352;48.708;9.290;2022-12-29T04:20:37;97331.34;;;1.82;69.61
43741;BME280;29352;48.708;9.290;2022-12-29T04:23:21;97340.16;;;1.98;69.64
43741;BME280;29352;48.708;9.290;2022-12-29T04:25:47;97343.09;;;2.03;69.54
43741;BME280;29352;48.708;9.290;2022-12-29T04:28:14;97353.63;;;2.03;69.39
43741;BME280;29352;48.708;9.290;2022-12-29T04:30:40;97343.19;;;1.86;70.03
43741;BME280;29352;48.708;9.290;2022-12-29T04:33:06;97351.69;;;1.97;69.53
43741;BME280;29352;48.708;9.290;2022-12-29T04:35:32;97365.38;;;1.92;70.00
43741;BME280;29352;48.708;9.290;2022-12-29T04:37:57;97360.06;;;2.00;69.72
43741;BME280;29352;48.708;9.290;2022-12-29T04:40:23;97355.81;;;1.91;69.80
43741;BME280;29352;48.708;9.290;2022-12-29T04:42:49;97359.66;;;1.80;70.15
43741;BME280;29352;48.708;9.290;2022-12-29T04:45:16;97352.09;;;1.85;69.69
43741;BME280;29352;48.708;9.290;2022-12-29T04:47:42;97342.63;;;1.68;69.98
43741;BME280;29352;48.708;9.290;2022-12-29T04:50:07;97344.13;;;1.94;69.10
43741;BME280;29352;48.708;9.290;2022-12-29T04:52:33;97344.34;;;1.84;68.97
43741;BME280;29352;48.708;9.290;2022-12-29T04:54:59;97342.19;;;1.56;69.18
43741;BME280;29352;48.708;9.290;2022-12-29T04:57:24;97349.72;;;1.28;69.60
43741;BME280;29352;48.708;9.290;2022-12-29T04:59:50;97355.09;;;1.43;70.19
43741;BME280;29352;48.708;9.290;2022-12-29T05:02:16;97343.31;;;1.62;69.09
43741;BME280;29352;48.708;9.290;2022-12-29T05:04:41;97354.84;;;1.61;68.75
43741;BME280;29352;48.708;9.290;2022-12-29T05:07:07;97358.88;;;1.72;68.38
43741;BME280;29352;48.708;9.290;2022-12-29T05:09:32;97356.19;;;1.49;68.47
43741;BME280;29352;48.708;9.290;2022-12-29T05:11:58;97364.16;;;1.32;69.21
43741;BME280;29352;48.708;9.290;2022-12-29T05:14:23;97356.09;;;1.34;68.99
43741;BME280;29352;48.708;9.290;2022-12-29T05:16:49;97358.78;;;1.57;68.24
43741;BME280;29352;48.708;9.290;2022-12-29T05:19:14;97361.50;;;1.40;68.63
43741;BME280;29352;48.708;9.290;2022-12-29T05:21:40;97364.84;;;1.18;69.35
43741;BME280;29352;48.708;9.290;2022-12-29T05:24:05;97354.50;;;1.64;68.16
43741;BME280;29352;48.708;9.290;2022-12-29T05:26:31;97346.81;;;1.54;68.23
43741;BME280;29352;48.708;9.290;2022-12-29T05:28:56;97343.09;;;1.40;68.78
43741;BME280;29352;48.708;9.290;2022-12-29T05:31:22;97346.28;;;1.59;68.34
43741;BME280;29352;48.708;9.290;2022-12-29T05:33:47;97346.22;;;1.36;69.33
43741;BME280;29352;48.708;9.290;2022-12-29T05:36:13;97342.47;;;0.75;70.96
43741;BME280;29352;48.708;9.290;2022-12-29T05:38:38;97339.34;;;0.79;70.86
43741;BME280;29352;48.708;9.290;2022-12-29T05:41:04;97350.16;;;0.92;70.77
43741;BME280;29352;48.708;9.290;2022-12-29T05:43:29;97361.69;;;0.75;71.10
43741;BME280;29352;48.708;9.290;2022-12-29T05:45:56;97362.00;;;0.88;70.51
43741;BME280;29352;48.708;9.290;2022-12-29T05:48:22;97355.38;;;1.09;70.09
43741;BME280;29352;48.708;9.290;2022-12-29T05:50:49;97361.25;;;1.11;69.97
43741;BME280;29352;48.708;9.290;2022-12-29T05:53:16;97350.53;;;1.29;69.84
43741;BME280;29352;48.708;9.290;2022-12-29T05:55:43;97346.38;;;0.95;70.65
43741;BME280;29352;48.708;9.290;2022-12-29T05:58:11;97337.22;;;1.22;69.60
43741;BME280;29352;48.708;9.290;2022-12-29T06:00:36;97341.38;;;1.08;69.88
43741;BME280;29352;48.708;9.290;2022-12-29T06:03:02;97345.50;;;1.11;69.99
43741;BME280;29352;48.708;9.290;2022-12-29T06:05:27;97334.94;;;1.27;69.34
43741;BME280;29352;48.708;9.290;2022-12-29T06:07:53;97341.53;;;1.23;69.33
43741;BME280;29352;48.708;9.290;2022-12-29T06:10:18;97340.91;;;1.13;69.78
43741;BME280;29352;48.708;9.290;2022-12-29T06:12:43;97338.91;;;1.23;69.81
43741;BME280;29352;48.708;9.290;2022-12-29T06:15:09;97326.13;;;1.12;69.71
43741;BME280;29352;48.708;9.290;2022-12-29T06:17:35;97323.72;;;0.86;70.85
43741;BME280;29352;48.708;9.290;2022-12-29T06:20:01;97324.41;;;1.27;69.75
43741;BME280;29352;48.708;9.290;2022-12-29T06:22:27;97319.06;;;1.12;70.16
43741;BME280;29352;48.708;9.290;2022-12-29T06:24:52;97315.00;;;0.93;70.65
43741;BME280;29352;48.708;9.290;2022-12-29T06:27:18;97308.34;;;1.14;70.29
43741;BME280;29352;48.708;9.290;2022-12-29T06:29:43;97310.88;;;0.99;70.64
43741;BME280;29352;48.708;9.290;2022-12-29T06:32:09;97330.66;;;1.26;70.14
43741;BME280;29352;48.708;9.290;2022-12-29T06:34:35;97329.28;;;1.38;69.75
43741;BME280;29352;48.708;9.290;2022-12-29T06:37:00;97324.47;;;1.50;69.46
43741;BME280;29352;48.708;9.290;2022-12-29T06:39:27;97333.19;;;1.51;69.75
43741;BME280;29352;48.708;9.290;2022-12-29T06:41:52;97326.63;;;1.47;69.45
43741;BME280;29352;48.708;9.290;2022-12-29T06:44:19;97326.66;;;1.70;69.30
43741;BME280;29352;48.708;9.290;2022-12-29T06:46:47;97332.25;;;1.66;69.27
43741;BME280;29352;48.708;9.290;2022-12-29T06:49:13;97329.38;;;1.84;68.75
43741;BME280;29352;48.708;9.290;2022-12-29T06:51:39;97334.78;;;2.14;68.40
43741;BME280;29352;48.708;9.290;2022-12-29T06:54:05;97322.97;;;1.87;68.95
43741;BME280;29352;48.708;9.290;2022-12-29T06:56:31;97329.38;;;1.84;69.36
43741;BME280;29352;48.708;9.290;2022-12-29T06:58:56;97325.28;;;1.82;69.52
43741;BME280;29352;48.708;9.290;2022-12-29T07:01:25;97326.91;;;1.83;69.62
43741;BME280;29352;48.708;9.290;2022-12-29T07:03:51;97322.94;;;1.64;70.13
43741;BME280;29352;48.708;9.290;2022-12-29T07:06:16;97309.94;;;1.62;70.60
43741;BME280;29352;48.708;9.290;2022-12-29T07:08:41;97310.31;;;1.82;70.14
43741;BME280;29352;48.708;9.290;2022-12-29T07:11:07;97313.28;;;1.79;70.12
43741;BME280;29352;48.708;9.290;2022-12-29T07:13:33;97315.91;;;1.79;70.30
43741;BME280;29352;48.708;9.290;2022-12-29T07:15:59;97324.59;;;1.88;70.11
43741;BME280;29352;48.708;9.290;2022-12-29T07:18:24;97324.72;;;1.95;69.94
43741;BME280;29352;48.708;9.290;2022-12-29T07:20:49;97316.81;;;1.95;69.66
43741;BME280;29352;48.708;9.290;2022-12-29T07:23:15;97313.81;;;2.06;69.57
43741;BME280;29352;48.708;9.290;2022-12-29T07:25:40;97314.19;;;2.18;69.30
43741;BME280;29352;48.708;9.290;2022-12-29T07:28:07;97310.19;;;2.59;68.56
43741;BME280;29352;48.708;9.290;2022-12-29T07:30:32;97318.69;;;2.47;68.59
43741;BME280;29352;48.708;9.290;2022-12-29T07:32:58;97316.25;;;2.45;68.38
43741;BME280;29352;48.708;9.290;2022-12-29T07:35:23;97319.88;;;2.82;67.83
43741;BME280;29352;48.708;9.290;2022-12-29T07:37:49;97312.41;;;3.15;66.99
43741;BME280;29352;48.708;9.290;2022-12-29T07:40:15;97318.13;;;3.04;67.24
43741;BME280;29352;48.708;9.290;2022-12-29T07:42:40;97330.97;;;3.07;67.41
43741;BME280;29352;48.708;9.290;2022-12-29T07:45:06;97322.84;;;3.08;67.43
43741;BME280;29352;48.708;9.290;2022-12-29T07:47:34;97327.31;;;3.08;67.32
43741;BME280;29352;48.708;9.290;2022-12-29T07:49:59;97330.31;;;2.90;67.71
43741;BME280;29352;48.708;9.290;2022-12-29T07:52:25;97329.03;;;2.86;68.17
43741;BME280;29352;48.708;9.290;2022-12-29T07:54:50;97327.78;;;2.82;68.26
43741;BME280;29352;48.708;9.290;2022-12-29T07:57:16;97335.22;;;2.78;68.59
43741;BME280;29352;48.708;9.290;2022-12-29T07:59:41;97334.94;;;2.73;68.64
43741;BME280;29352;48.708;9.290;2022-12-29T08:02:10;97347.03;;;2.82;68.71
43741;BME280;29352;48.708;9.290;2022-12-29T08:04:36;97330.22;;;2.83;68.52
43741;BME280;29352;48.708;9.290;2022-12-29T08:07:02;97328.03;;;2.72;68.93
43741;BME280;29352;48.708;9.290;2022-12-29T08:09:27;97333.50;;;2.85;68.48
43741;BME280;29352;48.708;9.290;2022-12-29T08:11:53;97329.50;;;2.90;68.29
43741;BME280;29352;48.708;9.290;2022-12-29T08:14:19;97337.97;;;3.00;68.73
43741;BME280;29352;48.708;9.290;2022-12-29T08:16:44;97338.13;;;2.98;68.82
43741;BME280;29352;48.708;9.290;2022-12-29T08:19:11;97340.69;;;3.06;68.47
43741;BME280;29352;48.708;9.290;2022-12-29T08:21:37;97344.03;;;3.15;68.27
43741;BME280;29352;48.708;9.290;2022-12-29T08:24:03;97336.06;;;3.23;68.01
43741;BME280;29352;48.708;9.290;2022-12-29T08:26:29;97341.69;;;3.35;67.92
43741;BME280;29352;48.708;9.290;2022-12-29T08:28:54;97352.81;;;3.30;67.97
43741;BME280;29352;48.708;9.290;2022-12-29T08:31:21;97352.44;;;3.34;68.04
43741;BME280;29352;48.708;9.290;2022-12-29T08:33:47;97347.91;;;3.27;67.88
43741;BME280;29352;48.708;9.290;2022-12-29T08:36:12;97349.34;;;3.45;67.48
43741;BME280;29352;48.708;9.290;2022-12-29T08:38:37;97351.16;;;3.44;67.56
43741;BME280;29352;48.708;9.290;2022-12-29T08:41:03;97346.94;;;3.50;67.48
43741;BME280;29352;48.708;9.290;2022-12-29T08:43:29;97343.28;;;3.66;67.30
43741;BME280;29352;48.708;9.290;2022-12-29T08:45:55;97353.13;;;3.57;67.11
43741;BME280;29352;48.708;9.290;2022-12-29T08:48:23;97338.91;;;3.73;66.40
43741;BME280;29352;48.708;9.290;2022-12-29T08:50:49;97344.75;;;3.68;65.99
43741;BME280;29352;48.708;9.290;2022-12-29T08:53:16;97334.31;;;3.82;65.70
43741;BME280;29352;48.708;9.290;2022-12-29T08:55:45;97343.41;;;3.94;65.20
43741;BME280;29352;48.708;9.290;2022-12-29T08:58:11;97344.34;;;4.08;65.19
43741;BME280;29352;48.708;9.290;2022-12-29T09:00:40;97334.16;;;4.04;65.03
43741;BME280;29352;48.708;9.290;2022-12-29T09:03:06;97338.16;;;3.79;64.99
43741;BME280;29352;48.708;9.290;2022-12-29T09:05:32;97347.88;;;3.78;65.68
43741;BME280;29352;48.708;9.290;2022-12-29T09:07:57;97346.03;;;3.94;65.71
43741;BME280;29352;48.708;9.290;2022-12-29T09:10:23;97351.81;;;3.83;65.58
43741;BME280;29352;48.708;9.290;2022-12-29T09:12:48;97348.44;;;3.74;65.33
43741;BME280;29352;48.708;9.290;2022-12-29T09:15:14;97357.66;;;3.63;65.59
43741;BME280;29352;48.708;9.290;2022-12-29T09:17:40;97358.19;;;3.73;65.50
43741;BME280;29352;48.708;9.290;2022-12-29T09:20:10;97369.16;;;3.55;66.04
43741;BME280;29352;48.708;9.290;2022-12-29T09:22:40;97371.59;;;3.72;65.42
43741;BME280;29352;48.708;9.290;2022-12-29T09:25:07;97369.84;;;3.64;65.84
43741;BME280;29352;48.708;9.290;2022-12-29T09:27:34;97371.88;;;3.62;65.80
43741;BME280;29352;48.708;9.290;2022-12-29T09:30:00;97371.03;;;3.76;65.71
43741;BME280;29352;48.708;9.290;2022-12-29T09:32:26;97379.63;;;3.85;65.33
43741;BME280;29352;48.708;9.290;2022-12-29T09:34:51;97379.50;;;3.72;66.23
43741;BME280;29352;48.708;9.290;2022-12-29T09:37:17;97378.66;;;3.71;65.55
43741;BME280;29352;48.708;9.290;2022-12-29T09:39:42;97380.66;;;3.84;65.43
43741;BME280;29352;48.708;9.290;2022-12-29T09:42:16;97379.84;;;3.84;65.54
43741;BME280;29352;48.708;9.290;2022-12-29T09:47:29;97379.25;;;4.03;65.10
43741;BME280;29352;48.708;9.290;2022-12-29T09:50:26;97379.69;;;4.07;65.14
43741;BME280;29352;48.708;9.290;2022-12-29T09:53:00;97366.28;;;4.08;65.02
43741;BME280;29352;48.708;9.290;2022-12-29T09:55:39;97366.06;;;4.24;65.04
43741;BME280;29352;48.708;9.290;2022-12-29T10:03:49;97362.16;;;4.42;65.51
43741;BME280;29352;48.708;9.290;2022-12-29T10:09:23;97365.50;;;4.79;65.01
43741;BME280;29352;48.708;9.290;2022-12-29T10:18:41;97368.38;;;4.56;66.24
43741;BME280;29352;48.708;9.290;2022-12-29T10:21:56;97371.84;;;4.35;66.83
43741;BME280;29352;48.708;9.290;2022-12-29T10:24:42;97373.47;;;4.36;67.29
43741;BME280;29352;48.708;9.290;2022-12-29T10:27:14;97380.72;;;4.27;67.36
43741;BME280;29352;48.708;9.290;2022-12-29T10:29:55;97380.13;;;4.32;66.94
43741;BME280;29352;48.708;9.290;2022-12-29T10:32:37;97372.72;;;4.42;66.65
43741;BME280;29352;48.708;9.290;2022-12-29T10:35:14;97384.28;;;4.41;66.81
43741;BME280;29352;48.708;9.290;2022-12-29T10:37:58;97375.50;;;4.55;66.44
43741;BME280;29352;48.708;9.290;2022-12-29T10:40:36;97374.41;;;4.71;65.95
43741;BME280;29352;48.708;9.290;2022-12-29T10:46:23;97375.53;;;4.83;65.86
43741;BME280;29352;48.708;9.290;2022-12-29T10:48:53;97364.84;;;4.70;65.99
43741;BME280;29352;48.708;9.290;2022-12-29T10:51:36;97362.97;;;4.92;66.36
43741;BME280;29352;48.708;9.290;2022-12-29T10:54:26;97372.00;;;5.80;64.60
43741;BME280;29352;48.708;9.290;2022-12-29T10:57:10;97357.84;;;5.60;64.27
43741;BME280;29352;48.708;9.290;2022-12-29T10:59:41;97376.75;;;5.15;64.96
43741;BME280;29352;48.708;9.290;2022-12-29T11:07:20;97376.00;;;4.65;66.48
43741;BME280;29352;48.708;9.290;2022-12-29T11:09:47;97374.06;;;4.53;66.65
43741;BME280;29352;48.708;9.290;2022-12-29T11:12:27;97376.66;;;4.74;66.53
43741;BME280;29352;48.708;9.290;2022-12-29T11:17:51;97371.91;;;4.91;66.66
43741;BME280;29352;48.708;9.290;2022-12-29T11:20:34;97367.47;;;4.98;66.95
43741;BME280;29352;48.708;9.290;2022-12-29T11:23:02;97369.16;;;5.06;66.27
43741;BME280;29352;48.708;9.290;2022-12-29T11:25:29;97367.06;;;4.94;67.08
43741;BME280;29352;48.708;9.290;2022-12-29T11:28:14;97381.84;;;4.89;66.80
43741;BME280;29352;48.708;9.290;2022-12-29T11:30:41;97381.03;;;4.88;67.22
43741;BME280;29352;48.708;9.290;2022-12-29T11:33:09;97375.09;;;4.80;67.49
43741;BME280;29352;48.708;9.290;2022-12-29T11:35:43;97377.84;;;4.71;67.54
43741;BME280;29352;48.708;9.290;2022-12-29T11:38:26;97376.69;;;4.53;67.98
43741;BME280;29352;48.708;9.290;2022-12-29T11:41:02;97380.16;;;4.53;68.47
43741;BME280;29352;48.708;9.290;2022-12-29T11:43:38;97381.63;;;4.41;69.00
43741;BME280;29352;48.708;9.290;2022-12-29T11:46:16;97387.19;;;4.46;69.23
43741;BME280;29352;48.708;9.290;2022-12-29T11:48:46;97368.78;;;4.53;68.83
43741;BME280;29352;48.708;9.290;2022-12-29T11:51:26;97379.03;;;4.62;68.89
43741;BME280;29352;48.708;9.290;2022-12-29T11:53:59;97375.25;;;4.78;68.88
43741;BME280;29352;48.708;9.290;2022-12-29T11:56:46;97385.84;;;5.06;69.03
43741;BME280;29352;48.708;9.290;2022-12-29T12:01:58;97384.53;;;4.67;70.38
43741;BME280;29352;48.708;9.290;2022-12-29T12:04:34;97387.31;;;4.38;71.13
43741;BME280;29352;48.708;9.290;2022-12-29T12:09:40;97371.41;;;4.53;70.71
43741;BME280;29352;48.708;9.290;2022-12-29T12:12:23;97368.44;;;4.62;71.37
43741;BME280;29352;48.708;9.290;2022-12-29T12:14:56;97369.22;;;4.56;71.68
43741;BME280;29352;48.708;9.290;2022-12-29T12:17:34;97365.53;;;4.57;71.28
43741;BME280;29352;48.708;9.290;2022-12-29T12:20:28;97365.16;;;4.39;71.61
43741;BME280;29352;48.708;9.290;2022-12-29T12:23:06;97376.13;;;4.57;71.41
43741;BME280;29352;48.708;9.290;2022-12-29T12:25:51;97378.53;;;4.52;71.83
43741;BME280;29352;48.708;9.290;2022-12-29T12:28:42;97382.00;;;4.81;72.83
43741;BME280;29352;48.708;9.290;2022-12-29T12:34:22;97383.88;;;4.59;76.83
43741;BME280;29352;48.708;9.290;2022-12-29T12:37:11;97392.84;;;4.64;78.22
43741;BME280;29352;48.708;9.290;2022-12-29T12:39:43;97379.38;;;4.38;78.67
43741;BME280;29352;48.708;9.290;2022-12-29T12:51:35;97382.53;;;4.48;80.02
43741;BME280;29352;48.708;9.290;2022-12-29T12:54:35;97377.13;;;4.35;79.61
43741;BME280;29352;48.708;9.290;2022-12-29T13:00:15;97362.66;;;4.31;79.27
43741;BME280;29352;48.708;9.290;2022-12-29T13:03:08;97360.69;;;4.39;78.06
43741;BME280;29352;48.708;9.290;2022-12-29T13:05:53;97356.59;;;4.37;76.67
43741;BME280;29352;48.708;9.290;2022-12-29T13:08:48;97347.84;;;4.36;76.56
43741;BME280;29352;48.708;9.290;2022-12-29T13:14:50;97353.38;;;4.20;76.37
43741;BME280;29352;48.708;9.290;2022-12-29T13:25:48;97357.81;;;4.56;74.77
43741;BME280;29352;48.708;9.290;2022-12-29T13:37:18;97356.81;;;4.14;75.17
43741;BME280;29352;48.708;9.290;2022-12-29T13:40:04;97355.78;;;4.36;74.75
43741;BME280;29352;48.708;9.290;2022-12-29T13:42:40;97365.91;;;4.33;75.29
43741;BME280;29352;48.708;9.290;2022-12-29T13:45:22;97361.94;;;4.22;75.62
43741;BME280;29352;48.708;9.290;2022-12-29T13:50:38;97354.72;;;4.31;76.12
43741;BME280;29352;48.708;9.290;2022-12-29T13:53:11;97343.41;;;4.15;76.72
43741;BME280;29352;48.708;9.290;2022-12-29T13:55:58;97345.41;;;4.35;76.86
43741;BME280;29352;48.708;9.290;2022-12-29T14:04:24;97342.97;;;4.12;77.56
43741;BME280;29352;48.708;9.290;2022-12-29T14:07:02;97345.41;;;4.35;77.19
43741;BME280;29352;48.708;9.290;2022-12-29T14:09:51;97347.94;;;4.21;77.22
43741;BME280;29352;48.708;9.290;2022-12-29T14:12:21;97342.22;;;4.18;77.43
43741;BME280;29352;48.708;9.290;2022-12-29T14:15:05;97341.56;;;4.16;77.17
43741;BME280;29352;48.708;9.290;2022-12-29T14:17:41;97335.81;;;4.27;76.91
43741;BME280;29352;48.708;9.290;2022-12-29T14:20:22;97330.47;;;4.20;77.02
43741;BME280;29352;48.708;9.290;2022-12-29T14:23:39;97339.22;;;4.06;77.15
43741;BME280;29352;48.708;9.290;2022-12-29T14:26:33;97341.41;;;4.17;76.83
43741;BME280;29352;48.708;9.290;2022-12-29T14:34:56;97333.84;;;4.14;76.34
43741;BME280;29352;48.708;9.290;2022-12-29T14:40:23;97343.72;;;4.27;75.80
43741;BME280;29352;48.708;9.290;2022-12-29T14:42:54;97343.84;;;3.97;76.25
43741;BME280;29352;48.708;9.290;2022-12-29T14:45:29;97346.19;;;3.92;76.58
43741;BME280;29352;48.708;9.290;2022-12-29T14:47:58;97342.13;;;3.90;76.65
43741;BME280;29352;48.708;9.290;2022-12-29T14:50:25;97357.09;;;3.83;76.94
43741;BME280;29352;48.708;9.290;2022-12-29T14:53:05;97348.16;;;3.84;76.90
43741;BME280;29352;48.708;9.290;2022-12-29T14:55:46;97348.34;;;3.82;76.55
43741;BME280;29352;48.708;9.290;2022-12-29T15:00:59;97345.47;;;3.62;77.34
43741;BME280;29352;48.708;9.290;2022-12-29T15:03:38;97346.06;;;3.43;77.63
43741;BME280;29352;48.708;9.290;2022-12-29T15:06:13;97341.13;;;3.40;77.56
43741;BME280;29352;48.708;9.290;2022-12-29T15:08:50;97349.50;;;3.43;77.44
43741;BME280;29352;48.708;9.290;2022-12-29T15:11:27;97348.00;;;3.34;77.76
43741;BME280;29352;48.708;9.290;2022-12-29T15:14:35;97358.19;;;3.37;77.66
43741;BME280;29352;48.708;9.290;2022-12-29T15:17:10;97345.63;;;3.24;77.93
43741;BME280;29352;48.708;9.290;2022-12-29T15:19:50;97350.69;;;3.11;78.02
43741;BME280;29352;48.708;9.290;2022-12-29T15:22:16;97342.56;;;3.13;77.89
43741;BME280;29352;48.708;9.290;2022-12-29T15:24:43;97339.41;;;3.17;77.82
43741;BME280;29352;48.708;9.290;2022-12-29T15:27:19;97338.69;;;2.94;78.33
43741;BME280;29352;48.708;9.290;2022-12-29T15:30:01;97349.06;;;3.10;77.73
43741;BME280;29352;48.708;9.290;2022-12-29T15:32:40;97348.41;;;3.08;77.67
43741;BME280;29352;48.708;9.290;2022-12-29T15:37:55;97362.59;;;3.07;77.46
43741;BME280;29352;48.708;9.290;2022-12-29T15:40:32;97351.69;;;3.10;77.15